Time;durP1;ratioP1;P1;durP2;ratioP2;P2;SDS_P1;SDS_P2;PMS_P1;PMS_P2;Temp;Humidity;BMP_temperature;BMP_pressure;BME280_temperature;BME280_humidity;BME280_pressure;Samples;Min_cycle;Max_cycle;Signal;HPM_P1;HPM_P2
2022/08/23 00:01:58;;;;;;;;;;;17.20;99.90;;;;;;5079785;28;19928;-57
2022/08/23 00:04:28;;;;;;;;;;;17.20;99.90;;;;;;5086856;28;19924;-57
2022/08/23 00:07:02;;;;;;;;;;;17.20;99.90;;;;;;5084684;28;19936;-56
2022/08/23 00:09:29;;;;;;;;;;;17.20;99.90;;;;;;5088533;28;19931;-58
2022/08/23 00:12:06;;;;;;;;;;;17.20;99.90;;;;;;5086739;28;19924;-58
2022/08/23 00:14:34;;;;;;;;;;;17.20;99.90;;;;;;5089449;28;19924;-59
2022/08/23 00:17:03;;;;;;;;;;;17.20;99.90;;;;;;5082069;28;20014;-57
2022/08/23 00:19:31;;;;;;;;;;;17.20;99.90;;;;;;5085621;28;19942;-57
2022/08/23 00:21:58;;;;;;;;;;;17.20;99.90;;;;;;5075102;28;19932;-58
2022/08/23 00:24:26;;;;;;;;;;;17.20;99.90;;;;;;5086648;28;20493;-57
2022/08/23 00:26:59;;;;;;;;;;;17.20;99.90;;;;;;5089588;28;19931;-58
2022/08/23 00:29:29;;;;;;;;;;;17.20;99.90;;;;;;5088270;28;20293;-58
2022/08/23 00:31:57;;;;;;;;;;;17.20;99.90;;;;;;5080815;28;19925;-57
2022/08/23 00:34:25;;;;;;;;;;;17.20;99.90;;;;;;5085614;28;20294;-58
2022/08/23 00:36:53;;;;;;;;;;;17.10;99.90;;;;;;5085391;28;19997;-57
2022/08/23 00:39:20;;;;;;;;;;;17.10;99.90;;;;;;5087834;28;19931;-59
2022/08/23 00:41:49;;;;;;;;;;;17.20;99.90;;;;;;5088371;28;19969;-58
2022/08/23 00:50:04;;;;;;;;;;;17.10;99.90;;;;;;5085385;28;20310;-57
2022/08/23 00:53:11;;;;;;;;;;;17.10;99.90;;;;;;5070971;28;19924;-56
2022/08/23 00:55:41;;;;;;;;;;;17.10;99.90;;;;;;5087378;28;20287;-56
2022/08/23 00:58:08;;;;;;;;;;;17.10;99.90;;;;;;5081209;28;20371;-56
2022/08/23 01:00:36;;;;;;;;;;;17.10;99.90;;;;;;5089186;28;19931;-56
2022/08/23 01:03:06;;;;;;;;;;;17.20;99.90;;;;;;5073694;28;19928;-56
2022/08/23 01:05:45;;;;;;;;;;;17.20;99.90;;;;;;5083959;28;20367;-57
2022/08/23 01:08:13;;;;;;;;;;;17.20;99.90;;;;;;5078030;28;19924;-57
2022/08/23 01:10:45;;;;;;;;;;;17.30;99.90;;;;;;5087081;28;19935;-57
2022/08/23 01:13:18;;;;;;;;;;;17.20;99.90;;;;;;5086352;28;19924;-56
2022/08/23 01:15:48;;;;;;;;;;;17.20;99.90;;;;;;5087602;28;19928;-57
2022/08/23 01:18:16;;;;;;;;;;;17.30;99.90;;;;;;5085422;28;19983;-56
2022/08/23 01:20:50;;;;;;;;;;;17.30;99.90;;;;;;5087811;28;19924;-56
2022/08/23 01:23:17;;;;;;;;;;;17.30;99.90;;;;;;5087293;28;19943;-56
2022/08/23 01:25:45;;;;;;;;;;;17.30;99.90;;;;;;5071895;28;19965;-57
2022/08/23 01:28:12;;;;;;;;;;;17.30;99.90;;;;;;5073015;28;19924;-57
2022/08/23 01:30:41;;;;;;;;;;;17.30;99.90;;;;;;5083779;28;19932;-57
2022/08/23 01:33:09;;;;;;;;;;;17.30;99.90;;;;;;5081509;28;19924;-57
2022/08/23 01:35:45;;;;;;;;;;;17.30;99.90;;;;;;5090761;28;19931;-57
2022/08/23 01:38:13;;;;;;;;;;;17.30;99.90;;;;;;5090526;28;19931;-57
2022/08/23 01:40:43;;;;;;;;;;;17.30;99.90;;;;;;5087999;28;19924;-57
2022/08/23 01:43:16;;;;;;;;;;;17.30;99.90;;;;;;5080951;28;19924;-56
2022/08/23 01:45:45;;;;;;;;;;;17.30;99.90;;;;;;5082735;28;20298;-56
2022/08/23 01:48:13;;;;;;;;;;;17.30;99.90;;;;;;5086437;28;20428;-56
2022/08/23 01:50:40;;;;;;;;;;;17.30;99.90;;;;;;5072132;28;20171;-56
2022/08/23 01:53:08;;;;;;;;;;;17.30;99.90;;;;;;5089033;28;20383;-56
2022/08/23 01:55:38;;;;;;;;;;;17.30;99.90;;;;;;5085635;28;19932;-56
2022/08/23 01:58:06;;;;;;;;;;;17.30;99.90;;;;;;5076292;28;19928;-56
2022/08/23 02:00:36;;;;;;;;;;;17.30;99.90;;;;;;5076517;28;20388;-56
2022/08/23 02:03:05;;;;;;;;;;;17.30;99.90;;;;;;5103999;28;19947;-56
2022/08/23 02:05:36;;;;;;;;;;;17.30;99.90;;;;;;5070204;28;19932;-55
2022/08/23 02:10:53;;;;;;;;;;;17.30;99.90;;;;;;5103909;28;19932;-56
2022/08/23 02:13:20;;;;;;;;;;;17.30;99.90;;;;;;5069620;28;20326;-56
2022/08/23 02:15:50;;;;;;;;;;;17.30;99.90;;;;;;5069772;28;20295;-56
2022/08/23 02:18:19;;;;;;;;;;;17.30;99.90;;;;;;5072115;28;19925;-56
2022/08/23 02:20:47;;;;;;;;;;;17.30;99.90;;;;;;5073825;28;19928;-56
2022/08/23 02:23:15;;;;;;;;;;;17.30;99.90;;;;;;5074613;28;19925;-56
2022/08/23 02:25:44;;;;;;;;;;;17.30;99.90;;;;;;5072926;28;19924;-56
2022/08/23 02:28:11;;;;;;;;;;;17.30;99.90;;;;;;5092553;28;19944;-56
2022/08/23 02:30:39;;;;;;;;;;;17.30;99.90;;;;;;5082856;28;19932;-56
2022/08/23 02:33:09;;;;;;;;;;;17.30;99.90;;;;;;5107293;28;19932;-56
2022/08/23 02:35:37;;;;;;;;;;;17.30;99.90;;;;;;5107513;28;20306;-56
2022/08/23 02:38:06;;;;;;;;;;;17.30;99.90;;;;;;5107223;28;19932;-56
2022/08/23 02:40:34;;;;;;;;;;;17.30;99.90;;;;;;5058484;28;19932;-55
2022/08/23 02:43:02;;;;;;;;;;;17.30;99.90;;;;;;5073444;28;19924;-56
2022/08/23 02:45:31;;;;;;;;;;;17.30;99.90;;;;;;5073455;28;19931;-56
2022/08/23 02:47:58;;;;;;;;;;;17.30;99.90;;;;;;5073009;28;20276;-56
2022/08/23 02:50:34;;;;;;;;;;;17.30;99.90;;;;;;5077310;28;20285;-56
2022/08/23 02:53:03;;;;;;;;;;;17.20;99.90;;;;;;5082075;28;20299;-56
2022/08/23 02:55:32;;;;;;;;;;;17.20;99.90;;;;;;5092548;28;19924;-56
2022/08/23 02:57:59;;;;;;;;;;;17.10;99.90;;;;;;5093559;28;20379;-55
2022/08/23 03:00:27;;;;;;;;;;;17.10;99.90;;;;;;5093427;28;19931;-56
2022/08/23 03:02:56;;;;;;;;;;;17.10;99.90;;;;;;5076406;28;19924;-56
2022/08/23 03:05:24;;;;;;;;;;;17.10;99.90;;;;;;5093001;28;19931;-55
2022/08/23 03:07:52;;;;;;;;;;;17.10;99.90;;;;;;5094558;28;19932;-56
2022/08/23 03:10:20;;;;;;;;;;;17.10;99.90;;;;;;5089859;28;19928;-56
2022/08/23 03:12:54;;;;;;;;;;;17.10;99.90;;;;;;5056246;28;19924;-56
2022/08/23 03:15:21;;;;;;;;;;;17.10;99.90;;;;;;5073675;28;19924;-55
2022/08/23 03:17:51;;;;;;;;;;;17.10;99.90;;;;;;5072097;28;20223;-56
2022/08/23 03:20:19;;;;;;;;;;;17.10;99.90;;;;;;5106416;28;20054;-56
2022/08/23 03:22:46;;;;;;;;;;;17.10;99.90;;;;;;5072648;28;19935;-56
2022/08/23 03:25:23;;;;;;;;;;;17.10;99.90;;;;;;5073746;28;19949;-56
2022/08/23 03:28:10;;;;;;;;;;;17.10;99.90;;;;;;5073406;28;19928;-56
2022/08/23 03:30:42;;;;;;;;;;;17.10;99.90;;;;;;5089671;28;20304;-56
2022/08/23 03:33:11;;;;;;;;;;;17.10;99.90;;;;;;5072080;28;19925;-56
2022/08/23 03:35:39;;;;;;;;;;;17.10;99.90;;;;;;5075062;28;19932;-56
2022/08/23 03:38:09;;;;;;;;;;;17.10;99.90;;;;;;5107802;28;19931;-56
2022/08/23 03:40:37;;;;;;;;;;;17.00;99.90;;;;;;5092456;28;19935;-56
2022/08/23 03:43:04;;;;;;;;;;;17.00;99.90;;;;;;5092593;28;20284;-58
2022/08/23 03:45:32;;;;;;;;;;;17.00;99.90;;;;;;5090918;28;19924;-58
2022/08/23 03:48:00;;;;;;;;;;;17.00;99.90;;;;;;5073321;28;19931;-56
2022/08/23 03:50:31;;;;;;;;;;;17.00;99.90;;;;;;5103482;28;20003;-58
2022/08/23 03:52:58;;;;;;;;;;;16.90;99.90;;;;;;5091977;28;19924;-57
2022/08/23 03:55:26;;;;;;;;;;;16.80;99.90;;;;;;5078000;28;19931;-58
2022/08/23 03:57:55;;;;;;;;;;;16.80;99.90;;;;;;5090015;28;20621;-58
2022/08/23 04:00:23;;;;;;;;;;;16.80;99.90;;;;;;5072893;28;19947;-56
2022/08/23 04:02:52;;;;;;;;;;;16.80;99.90;;;;;;5105686;28;19931;-58
2022/08/23 04:05:22;;;;;;;;;;;16.70;99.90;;;;;;5104443;28;19932;-56
2022/08/23 04:07:50;;;;;;;;;;;16.70;99.90;;;;;;5076298;28;20371;-56
2022/08/23 04:10:20;;;;;;;;;;;16.70;99.90;;;;;;5105144;28;20380;-55
2022/08/23 04:12:52;;;;;;;;;;;16.70;99.90;;;;;;5104830;28;19931;-55
2022/08/23 04:15:21;;;;;;;;;;;16.70;99.90;;;;;;5093021;28;20371;-56
2022/08/23 04:17:48;;;;;;;;;;;16.70;99.90;;;;;;5092100;28;19925;-56
2022/08/23 04:20:16;;;;;;;;;;;16.70;99.90;;;;;;5090304;28;19924;-56
2022/08/23 04:22:53;;;;;;;;;;;16.70;99.90;;;;;;5077526;28;20292;-56
2022/08/23 04:25:23;;;;;;;;;;;16.70;99.90;;;;;;5084784;28;19929;-56
2022/08/23 04:28:03;;;;;;;;;;;16.70;99.90;;;;;;5078546;28;19932;-58
2022/08/23 04:30:31;;;;;;;;;;;16.70;99.90;;;;;;5070984;28;19924;-56
2022/08/23 04:32:59;;;;;;;;;;;16.70;99.90;;;;;;5071394;28;19925;-56
2022/08/23 04:35:29;;;;;;;;;;;16.60;99.90;;;;;;5088212;28;19932;-56
2022/08/23 04:37:57;;;;;;;;;;;16.60;99.90;;;;;;5071344;28;20307;-56
2022/08/23 04:43:13;;;;;;;;;;;16.60;99.90;;;;;;5091591;28;19939;-56
2022/08/23 04:45:40;;;;;;;;;;;16.60;99.90;;;;;;5077931;28;19932;-56
2022/08/23 04:48:15;;;;;;;;;;;16.60;99.90;;;;;;5096954;27;19931;-56
2022/08/23 04:50:48;;;;;;;;;;;16.60;99.90;;;;;;5069246;28;19933;-56
2022/08/23 04:53:18;;;;;;;;;;;16.70;99.90;;;;;;5069953;28;19947;-56
2022/08/23 04:56:01;;;;;;;;;;;16.70;99.90;;;;;;5076510;28;19931;-56
2022/08/23 04:58:30;;;;;;;;;;;16.70;99.90;;;;;;5081235;28;19924;-57
2022/08/23 05:00:58;;;;;;;;;;;16.80;99.90;;;;;;5082691;28;19966;-56
2022/08/23 05:03:28;;;;;;;;;;;16.80;99.90;;;;;;5071455;28;19924;-56
2022/08/23 05:05:57;;;;;;;;;;;16.80;99.90;;;;;;5077481;28;20337;-56
2022/08/23 05:08:35;;;;;;;;;;;16.80;99.90;;;;;;5077737;28;19928;-58
2022/08/23 05:11:05;;;;;;;;;;;16.90;99.90;;;;;;5068787;28;19933;-58
2022/08/23 05:13:33;;;;;;;;;;;16.90;99.90;;;;;;5081623;28;19932;-57
2022/08/23 05:16:02;;;;;;;;;;;16.90;99.90;;;;;;5099164;27;19928;-56
2022/08/23 05:18:33;;;;;;;;;;;16.90;99.90;;;;;;5083649;28;19924;-57
2022/08/23 05:21:01;;;;;;;;;;;16.90;99.90;;;;;;5075489;28;19928;-56
2022/08/23 05:23:29;;;;;;;;;;;17.00;99.90;;;;;;5078102;28;20204;-56
2022/08/23 05:26:06;;;;;;;;;;;17.00;99.90;;;;;;5082991;28;19924;-56
2022/08/23 05:28:39;;;;;;;;;;;17.00;99.90;;;;;;5082921;28;19924;-56
2022/08/23 05:31:12;;;;;;;;;;;17.00;99.90;;;;;;5064545;28;19928;-56
2022/08/23 05:33:45;;;;;;;;;;;17.00;99.90;;;;;;5078974;28;20395;-56
2022/08/23 05:36:15;;;;;;;;;;;17.00;99.90;;;;;;5083440;28;19924;-58
2022/08/23 05:38:43;;;;;;;;;;;17.10;99.90;;;;;;5086613;28;20426;-58
2022/08/23 05:41:13;;;;;;;;;;;17.10;99.90;;;;;;5085709;28;19931;-58
2022/08/23 05:43:41;;;;;;;;;;;17.10;99.90;;;;;;5085232;28;19931;-57
2022/08/23 05:46:10;;;;;;;;;;;17.20;99.90;;;;;;5068423;28;20351;-56
2022/08/23 05:48:48;;;;;;;;;;;17.20;99.90;;;;;;5064352;28;20402;-56
2022/08/23 05:51:19;;;;;;;;;;;17.20;99.90;;;;;;5088095;28;19935;-56
2022/08/23 05:53:48;;;;;;;;;;;17.30;99.90;;;;;;5090930;28;19931;-56
2022/08/23 05:56:19;;;;;;;;;;;17.30;99.90;;;;;;5090225;28;20017;-57
2022/08/23 05:58:47;;;;;;;;;;;17.30;99.90;;;;;;5087783;28;19924;-56
2022/08/23 06:01:15;;;;;;;;;;;17.40;99.90;;;;;;5070499;28;19932;-57
2022/08/23 06:03:42;;;;;;;;;;;17.40;99.90;;;;;;5102621;28;20311;-58
2022/08/23 06:06:11;;;;;;;;;;;17.40;99.90;;;;;;5087715;28;19924;-60
2022/08/23 06:08:39;;;;;;;;;;;17.50;99.90;;;;;;5092344;28;19924;-59
2022/08/23 06:11:12;;;;;;;;;;;17.50;99.90;;;;;;5074078;28;20388;-58
2022/08/23 06:13:44;;;;;;;;;;;17.50;99.90;;;;;;5090838;28;19957;-59
2022/08/23 06:16:13;;;;;;;;;;;17.50;99.90;;;;;;5075169;28;19925;-59
2022/08/23 06:18:43;;;;;;;;;;;17.50;99.90;;;;;;5084744;28;19924;-58
2022/08/23 06:21:43;;;;;;;;;;;17.60;99.90;;;;;;5079216;28;19924;-59
2022/08/23 06:24:13;;;;;;;;;;;17.60;99.90;;;;;;5073935;28;19931;-59
2022/08/23 06:26:50;;;;;;;;;;;17.60;99.90;;;;;;5075612;28;19931;-59
2022/08/23 06:29:18;;;;;;;;;;;17.60;99.90;;;;;;5091414;28;19924;-56
2022/08/23 06:31:50;;;;;;;;;;;17.60;99.90;;;;;;5068370;28;19931;-56
2022/08/23 06:34:32;;;;;;;;;;;17.70;99.90;;;;;;5087190;28;19924;-58
2022/08/23 06:37:20;;;;;;;;;;;17.70;99.90;;;;;;5090784;28;19924;-56
2022/08/23 06:40:00;;;;;;;;;;;17.70;99.90;;;;;;5090687;28;19924;-58
2022/08/23 06:42:43;;;;;;;;;;;17.70;99.90;;;;;;5090258;28;19924;-59
2022/08/23 06:45:11;;;;;;;;;;;17.70;99.90;;;;;;5086655;28;19924;-59
2022/08/23 06:47:40;;;;;;;;;;;17.70;99.90;;;;;;5075303;28;20429;-57
2022/08/23 06:50:09;;;;;;;;;;;17.70;99.90;;;;;;5090482;28;20379;-56
2022/08/23 06:53:08;;;;;;;;;;;17.80;99.90;;;;;;5066940;28;20423;-58
2022/08/23 06:55:59;;;;;;;;;;;17.80;99.90;;;;;;5080855;28;19924;-60
2022/08/23 06:58:38;;;;;;;;;;;17.80;99.90;;;;;;5090117;28;19939;-58
2022/08/23 07:01:38;;;;;;;;;;;17.90;99.90;;;;;;5052329;28;20311;-58
2022/08/23 07:04:52;;;;;;;;;;;17.90;99.90;;;;;;5067330;28;19932;-61
2022/08/23 07:07:49;;;;;;;;;;;18.00;99.90;;;;;;5075214;28;20001;-60
2022/08/23 07:10:17;;;;;;;;;;;18.10;99.90;;;;;;5082830;28;20307;-59
2022/08/23 07:12:45;;;;;;;;;;;18.10;99.90;;;;;;5080515;28;19928;-61
2022/08/23 07:15:13;;;;;;;;;;;18.10;99.90;;;;;;5070142;28;19928;-61
2022/08/23 07:17:43;;;;;;;;;;;18.20;99.90;;;;;;5072131;28;19931;-60
2022/08/23 07:20:11;;;;;;;;;;;18.20;99.90;;;;;;5069434;28;19951;-57
2022/08/23 07:22:43;;;;;;;;;;;18.20;99.90;;;;;;5070101;28;19924;-60
2022/08/23 07:25:11;;;;;;;;;;;18.30;99.90;;;;;;5077415;28;19924;-60
2022/08/23 07:27:43;;;;;;;;;;;18.20;99.90;;;;;;5085013;28;19928;-61
2022/08/23 07:30:13;;;;;;;;;;;18.30;99.90;;;;;;5070751;28;19939;-59
2022/08/23 07:32:40;;;;;;;;;;;18.20;99.90;;;;;;5060734;28;19924;-58
2022/08/23 07:35:27;;;;;;;;;;;18.20;99.90;;;;;;5080969;28;19928;-58
2022/08/23 07:37:58;;;;;;;;;;;18.20;99.90;;;;;;5073791;28;20102;-57
2022/08/23 07:40:30;;;;;;;;;;;18.20;99.90;;;;;;5074009;28;19924;-58
2022/08/23 07:43:05;;;;;;;;;;;18.10;99.90;;;;;;5073915;28;19925;-57
2022/08/23 07:45:34;;;;;;;;;;;18.20;99.90;;;;;;5071273;28;19932;-58
2022/08/23 07:48:03;;;;;;;;;;;18.20;99.90;;;;;;5083482;28;20380;-57
2022/08/23 07:50:39;;;;;;;;;;;18.20;99.90;;;;;;5068784;28;19932;-58
2022/08/23 07:53:21;;;;;;;;;;;18.20;99.90;;;;;;5066745;28;19994;-57
2022/08/23 07:56:06;;;;;;;;;;;18.30;99.90;;;;;;5088968;28;19928;-58
2022/08/23 07:58:54;;;;;;;;;;;18.30;99.90;;;;;;5083125;28;19924;-57
2022/08/23 08:01:39;;;;;;;;;;;18.40;99.90;;;;;;5080709;28;19929;-56
2022/08/23 08:04:08;;;;;;;;;;;18.50;99.90;;;;;;5069539;28;20094;-57
2022/08/23 08:06:39;;;;;;;;;;;18.60;99.90;;;;;;5077029;28;19931;-57
2022/08/23 08:09:07;;;;;;;;;;;18.60;99.90;;;;;;5085399;28;20399;-57
2022/08/23 08:11:35;;;;;;;;;;;18.70;99.90;;;;;;5074510;28;20311;-57
2022/08/23 08:14:06;;;;;;;;;;;18.80;99.90;;;;;;5085130;28;20307;-57
2022/08/23 08:16:37;;;;;;;;;;;18.90;99.90;;;;;;5082109;28;19924;-57
2022/08/23 08:19:07;;;;;;;;;;;18.90;99.90;;;;;;5079518;28;19928;-58
2022/08/23 08:21:53;;;;;;;;;;;19.00;99.90;;;;;;5074520;28;19932;-58
2022/08/23 08:24:53;;;;;;;;;;;19.10;99.90;;;;;;5065296;28;19932;-58
2022/08/23 08:27:21;;;;;;;;;;;19.20;99.90;;;;;;5081529;28;20274;-56
2022/08/23 08:29:48;;;;;;;;;;;19.30;99.90;;;;;;5083312;28;19935;-57
2022/08/23 08:32:16;;;;;;;;;;;19.40;99.90;;;;;;5081787;28;19935;-57
2022/08/23 08:34:44;;;;;;;;;;;19.50;99.90;;;;;;5068960;28;19931;-58
2022/08/23 08:37:11;;;;;;;;;;;19.50;99.90;;;;;;5068655;28;19932;-58
2022/08/23 08:39:44;;;;;;;;;;;19.60;99.90;;;;;;5088500;28;19927;-57
2022/08/23 08:42:16;;;;;;;;;;;19.60;99.90;;;;;;5086869;28;19946;-61
2022/08/23 08:44:48;;;;;;;;;;;19.50;99.90;;;;;;5085044;28;19931;-60
2022/08/23 08:47:26;;;;;;;;;;;19.50;99.90;;;;;;5083457;28;19923;-60
2022/08/23 08:50:01;;;;;;;;;;;19.60;99.90;;;;;;5086120;28;19924;-60
2022/08/23 08:52:34;;;;;;;;;;;19.60;99.90;;;;;;5067438;28;20418;-60
2022/08/23 08:55:09;;;;;;;;;;;19.60;99.90;;;;;;5087462;28;20376;-60
2022/08/23 08:57:40;;;;;;;;;;;19.70;99.90;;;;;;5087838;28;19924;-60
2022/08/23 09:00:13;;;;;;;;;;;19.70;99.90;;;;;;5087961;28;19927;-58
2022/08/23 09:02:44;;;;;;;;;;;19.70;99.90;;;;;;5074443;28;19924;-61
2022/08/23 09:05:13;;;;;;;;;;;19.80;99.90;;;;;;5084156;28;19931;-66
2022/08/23 09:07:41;;;;;;;;;;;19.80;99.90;;;;;;5073409;28;19932;-57
2022/08/23 09:10:27;;;;;;;;;;;19.80;99.90;;;;;;5087609;28;19924;-58
2022/08/23 09:13:28;;;;;;;;;;;19.90;99.90;;;;;;5079822;28;19924;-62
2022/08/23 09:16:02;;;;;;;;;;;20.10;99.90;;;;;;5077761;28;19924;-59
2022/08/23 09:18:31;;;;;;;;;;;20.30;99.90;;;;;;5082039;28;20266;-60
2022/08/23 09:21:00;;;;;;;;;;;20.50;99.90;;;;;;5070535;28;19931;-57
2022/08/23 09:23:33;;;;;;;;;;;20.60;99.90;;;;;;5080495;28;19928;-56
2022/08/23 09:26:03;;;;;;;;;;;20.70;99.90;;;;;;5084525;28;19928;-56
2022/08/23 09:28:36;;;;;;;;;;;20.90;99.90;;;;;;5079449;28;19931;-58
2022/08/23 09:31:06;;;;;;;;;;;20.90;99.90;;;;;;5083199;28;19925;-56
2022/08/23 09:33:38;;;;;;;;;;;20.80;99.90;;;;;;5071988;28;19925;-57
2022/08/23 09:36:06;;;;;;;;;;;20.90;99.90;;;;;;5066817;28;19931;-57
2022/08/23 09:38:36;;;;;;;;;;;20.90;99.90;;;;;;5079521;28;19933;-57
2022/08/23 09:41:19;;;;;;;;;;;20.80;99.90;;;;;;5083969;28;20912;-61
2022/08/23 09:43:51;;;;;;;;;;;20.90;99.90;;;;;;5082889;28;19928;-56
2022/08/23 09:46:27;;;;;;;;;;;21.00;99.90;;;;;;5081651;28;19940;-59
2022/08/23 09:48:57;;;;;;;;;;;21.10;99.90;;;;;;5082890;28;19931;-57
2022/08/23 09:51:34;;;;;;;;;;;21.20;99.90;;;;;;5087275;28;19924;-61
2022/08/23 09:54:42;;;;;;;;;;;21.30;99.90;;;;;;5085885;28;20426;-61
2022/08/23 09:57:22;;;;;;;;;;;21.40;99.90;;;;;;5028877;28;20421;-60
2022/08/23 09:59:50;;;;;;;;;;;21.40;99.90;;;;;;5062798;28;19929;-57
2022/08/23 10:02:33;;;;;;;;;;;21.40;99.90;;;;;;5081056;28;19928;-57
2022/08/23 10:05:27;;;;;;;;;;;21.40;99.90;;;;;;5085222;28;19924;-56
2022/08/23 10:07:59;;;;;;;;;;;21.40;99.90;;;;;;5087238;28;19923;-60
2022/08/23 10:10:28;;;;;;;;;;;21.50;99.90;;;;;;5082173;28;19929;-58
2022/08/23 10:13:00;;;;;;;;;;;21.60;99.90;;;;;;5097649;28;19924;-60
2022/08/23 10:15:40;;;;;;;;;;;21.80;99.90;;;;;;5086910;28;19924;-58
2022/08/23 10:18:18;;;;;;;;;;;21.80;99.90;;;;;;5063418;28;19928;-56
2022/08/23 10:20:54;;;;;;;;;;;21.90;99.90;;;;;;5086714;28;19931;-60
2022/08/23 10:23:34;;;;;;;;;;;22.00;99.90;;;;;;5083129;28;19923;-58
2022/08/23 10:26:02;;;;;;;;;;;22.20;99.90;;;;;;5081451;28;19924;-59
2022/08/23 10:31:52;;;;;;;;;;;22.50;99.90;;;;;;5087522;28;19931;-60
2022/08/23 10:34:42;;;;;;;;;;;22.60;99.90;;;;;;5085728;28;20288;-57
2022/08/23 10:37:29;;;;;;;;;;;22.80;99.90;;;;;;5092067;28;19924;-57
2022/08/23 10:40:06;;;;;;;;;;;22.80;99.90;;;;;;5091458;28;19939;-56
2022/08/23 10:42:50;;;;;;;;;;;22.90;99.90;;;;;;5080440;28;19954;-60
2022/08/23 10:45:24;;;;;;;;;;;23.10;99.90;;;;;;5090624;28;19931;-57
2022/08/23 10:47:59;;;;;;;;;;;23.20;99.90;;;;;;5082946;28;20422;-57
2022/08/23 10:50:31;;;;;;;;;;;23.50;99.90;;;;;;5090123;28;19931;-58
2022/08/23 10:53:11;;;;;;;;;;;23.70;99.90;;;;;;5090331;28;20417;-56
2022/08/23 10:55:53;;;;;;;;;;;23.90;99.90;;;;;;5070137;28;19925;-57
2022/08/23 10:58:25;;;;;;;;;;;24.00;99.90;;;;;;5080044;28;19931;-56
2022/08/23 11:00:56;;;;;;;;;;;24.20;99.90;;;;;;5091841;28;19931;-58
2022/08/23 11:03:31;;;;;;;;;;;24.20;99.90;;;;;;5082459;28;19928;-60
2022/08/23 11:06:19;;;;;;;;;;;24.10;99.90;;;;;;5090318;28;19932;-61
2022/08/23 11:08:46;;;;;;;;;;;23.90;99.90;;;;;;5083138;28;19939;-57
2022/08/23 11:11:35;;;;;;;;;;;23.50;99.90;;;;;;5085631;28;19948;-60
2022/08/23 11:14:03;;;;;;;;;;;23.20;99.90;;;;;;5081956;28;19931;-61
2022/08/23 11:16:30;;;;;;;;;;;22.90;99.90;;;;;;5070444;28;19932;-61
2022/08/23 11:18:58;;;;;;;;;;;22.80;99.90;;;;;;5088250;28;19924;-63
2022/08/23 11:21:38;;;;;;;;;;;22.80;99.90;;;;;;5081839;28;19932;-60
2022/08/23 11:24:08;;;;;;;;;;;22.80;99.90;;;;;;5086179;28;19924;-60
2022/08/23 11:26:36;;;;;;;;;;;22.90;99.90;;;;;;5084177;28;19931;-59
2022/08/23 11:29:05;;;;;;;;;;;22.90;99.90;;;;;;5089288;28;20402;-60
2022/08/23 11:31:46;;;;;;;;;;;22.90;99.90;;;;;;5090249;28;19924;-59
2022/08/23 11:34:15;;;;;;;;;;;22.80;99.90;;;;;;5079764;28;19925;-61
2022/08/23 11:37:03;;;;;;;;;;;22.80;99.90;;;;;;5070455;28;19928;-62
2022/08/23 11:39:51;;;;;;;;;;;22.70;99.90;;;;;;5081989;28;19932;-62
2022/08/23 11:42:18;;;;;;;;;;;22.70;99.90;;;;;;5070313;28;19932;-62
2022/08/23 11:44:47;;;;;;;;;;;22.70;99.90;;;;;;5086595;28;19931;-60
2022/08/23 11:47:26;;;;;;;;;;;22.80;99.90;;;;;;5082882;28;20304;-61
2022/08/23 11:50:16;;;;;;;;;;;22.90;99.90;;;;;;5088550;28;19924;-62
2022/08/23 11:52:46;;;;;;;;;;;23.00;99.90;;;;;;5080867;28;20489;-64
2022/08/23 11:55:22;;;;;;;;;;;23.00;99.90;;;;;;5090442;28;20302;-58
2022/08/23 11:57:56;;;;;;;;;;;23.00;99.90;;;;;;5090337;28;19928;-59
2022/08/23 12:00:47;;;;;;;;;;;23.00;99.90;;;;;;5090270;28;19924;-58
2022/08/23 12:03:35;;;;;;;;;;;23.00;99.90;;;;;;5087144;28;19924;-59
2022/08/23 12:06:06;;;;;;;;;;;23.20;99.90;;;;;;5078680;28;19928;-62
2022/08/23 12:08:54;;;;;;;;;;;23.30;99.90;;;;;;5081755;28;19931;-60
2022/08/23 12:11:23;;;;;;;;;;;23.50;99.90;;;;;;5069889;28;19929;-59
2022/08/23 12:13:56;;;;;;;;;;;23.60;99.90;;;;;;5070729;28;19951;-62
2022/08/23 12:16:27;;;;;;;;;;;23.90;99.90;;;;;;5068707;28;19925;-60
2022/08/23 12:18:58;;;;;;;;;;;24.00;99.90;;;;;;5070530;28;19924;-60
2022/08/23 12:21:40;;;;;;;;;;;24.00;99.90;;;;;;5069138;28;19925;-61
2022/08/23 12:24:14;;;;;;;;;;;24.00;99.90;;;;;;5087490;28;20367;-59
2022/08/23 12:26:41;;;;;;;;;;;24.00;99.90;;;;;;5088466;28;19932;-60
2022/08/23 12:29:22;;;;;;;;;;;24.60;99.90;;;;;;5078402;28;20261;-59
2022/08/23 12:32:04;;;;;;;;;;;25.30;99.90;;;;;;5067907;28;20291;-60
2022/08/23 12:34:50;;;;;;;;;;;26.10;99.90;;;;;;5067209;28;19944;-60
2022/08/23 12:37:19;;;;;;;;;;;26.80;99.90;;;;;;5072742;28;19931;-60
2022/08/23 12:39:49;;;;;;;;;;;27.20;99.90;;;;;;5074186;28;19935;-61
2022/08/23 12:42:19;;;;;;;;;;;27.40;99.90;;;;;;5081379;28;19924;-60
2022/08/23 12:44:57;;;;;;;;;;;27.30;99.30;;;;;;5085990;28;19924;-57
2022/08/23 12:47:25;;;;;;;;;;;27.20;99.30;;;;;;5076869;28;20383;-58
2022/08/23 12:49:57;;;;;;;;;;;27.00;99.50;;;;;;5079200;28;19924;-58
2022/08/23 12:52:26;;;;;;;;;;;27.10;99.90;;;;;;5076656;28;19935;-57
2022/08/23 12:54:56;;;;;;;;;;;27.40;99.00;;;;;;5090460;28;19925;-61
2022/08/23 12:57:38;;;;;;;;;;;27.60;99.30;;;;;;5071865;28;19924;-59
2022/08/23 13:00:09;;;;;;;;;;;27.80;99.00;;;;;;5068938;28;19932;-61
2022/08/23 13:02:50;;;;;;;;;;;27.90;97.80;;;;;;5069392;28;19939;-62
2022/08/23 13:05:39;;;;;;;;;;;27.80;97.00;;;;;;5072735;28;19924;-58
2022/08/23 13:08:08;;;;;;;;;;;28.00;97.50;;;;;;5074040;28;19935;-61
2022/08/23 13:10:37;;;;;;;;;;;28.20;96.40;;;;;;5082083;28;19939;-61
2022/08/23 13:13:07;;;;;;;;;;;27.90;96.00;;;;;;5082339;28;20400;-62
2022/08/23 13:15:49;;;;;;;;;;;27.40;96.10;;;;;;5077304;28;19986;-61
2022/08/23 13:18:40;;;;;;;;;;;26.90;96.90;;;;;;5074168;28;20395;-57
2022/08/23 13:21:18;;;;;;;;;;;26.30;97.90;;;;;;5074199;28;19928;-58
2022/08/23 13:23:45;;;;;;;;;;;25.90;98.50;;;;;;5081578;28;19927;-58
2022/08/23 13:26:23;;;;;;;;;;;25.70;99.30;;;;;;5080724;28;19925;-58
2022/08/23 13:29:07;;;;;;;;;;;25.60;99.80;;;;;;5082306;28;19924;-58
2022/08/23 13:31:47;;;;;;;;;;;25.50;99.40;;;;;;5068670;28;19928;-60
2022/08/23 13:34:30;;;;;;;;;;;25.40;99.40;;;;;;5070837;28;19987;-59
2022/08/23 13:36:58;;;;;;;;;;;25.20;99.20;;;;;;5067828;28;20411;-61
2022/08/23 13:39:26;;;;;;;;;;;25.00;99.30;;;;;;5074776;28;19943;-61
2022/08/23 13:41:54;;;;;;;;;;;24.80;99.10;;;;;;5066567;28;19932;-60
2022/08/23 13:44:22;;;;;;;;;;;24.70;99.50;;;;;;5074589;28;19943;-58
2022/08/23 13:46:50;;;;;;;;;;;25.00;99.90;;;;;;5068554;28;20640;-59
2022/08/23 13:49:27;;;;;;;;;;;25.60;99.10;;;;;;5070902;28;19952;-61
2022/08/23 13:51:57;;;;;;;;;;;26.20;97.00;;;;;;5068037;28;19939;-59
2022/08/23 13:54:45;;;;;;;;;;;26.20;96.30;;;;;;5067368;28;20371;-61
2022/08/23 13:57:19;;;;;;;;;;;26.00;96.50;;;;;;5067160;28;19924;-60
2022/08/23 13:59:47;;;;;;;;;;;25.90;97.00;;;;;;5084095;28;20306;-61
2022/08/23 14:02:15;;;;;;;;;;;26.20;98.20;;;;;;5069911;28;19935;-62
2022/08/23 14:04:43;;;;;;;;;;;26.40;97.00;;;;;;5070234;28;19931;-61
2022/08/23 14:07:11;;;;;;;;;;;26.50;96.60;;;;;;5078580;28;19928;-60
2022/08/23 14:09:38;;;;;;;;;;;26.40;96.50;;;;;;5067517;28;19932;-59
2022/08/23 14:12:08;;;;;;;;;;;26.40;97.10;;;;;;5076689;28;19931;-62
2022/08/23 14:14:36;;;;;;;;;;;26.60;97.10;;;;;;5075045;28;19955;-60
2022/08/23 14:17:04;;;;;;;;;;;26.60;96.50;;;;;;5082696;28;19923;-61
2022/08/23 14:19:37;;;;;;;;;;;26.50;96.50;;;;;;5089339;28;20295;-60
2022/08/23 14:22:24;;;;;;;;;;;26.40;96.70;;;;;;5073466;28;19932;-60
2022/08/23 14:24:52;;;;;;;;;;;26.20;96.70;;;;;;5072361;28;19925;-61
2022/08/23 14:27:19;;;;;;;;;;;25.90;96.80;;;;;;5079054;28;19925;-60
2022/08/23 14:29:47;;;;;;;;;;;25.70;97.40;;;;;;5090623;28;19931;-61
2022/08/23 14:32:14;;;;;;;;;;;25.50;97.60;;;;;;5072481;28;19924;-59
2022/08/23 14:34:42;;;;;;;;;;;25.30;98.00;;;;;;5081455;28;19932;-62
2022/08/23 14:37:09;;;;;;;;;;;25.30;98.30;;;;;;5072622;28;19928;-61
2022/08/23 14:39:57;;;;;;;;;;;25.40;98.40;;;;;;5070862;28;20295;-59
2022/08/23 14:42:24;;;;;;;;;;;25.70;98.20;;;;;;5073655;28;20425;-59
2022/08/23 14:44:52;;;;;;;;;;;25.80;96.80;;;;;;5078299;28;19935;-59
2022/08/23 14:47:20;;;;;;;;;;;25.70;96.90;;;;;;5071867;28;20402;-57
2022/08/23 14:49:47;;;;;;;;;;;25.60;97.10;;;;;;5077897;28;19925;-59
2022/08/23 14:52:20;;;;;;;;;;;25.50;97.00;;;;;;5071415;28;19924;-57
2022/08/23 14:54:47;;;;;;;;;;;25.20;97.10;;;;;;5078318;28;19924;-58
2022/08/23 14:57:15;;;;;;;;;;;25.00;97.20;;;;;;5091807;28;19928;-58
2022/08/23 14:59:43;;;;;;;;;;;24.70;97.60;;;;;;5088069;28;19924;-62
2022/08/23 15:02:12;;;;;;;;;;;24.70;98.00;;;;;;5082826;28;20394;-57
2022/08/23 15:04:41;;;;;;;;;;;24.60;98.10;;;;;;5079338;28;19932;-60